Time;durP1;ratioP1;P1;durP2;ratioP2;P2;SDS_P1;SDS_P2;PMS_P1;PMS_P2;Temp;Humidity;BMP_temperature;BMP_pressure;BME280_temperature;BME280_humidity;BME280_pressure;Samples;Min_cycle;Max_cycle;Signal;HPM_P1;HPM_P2
2022/07/23 00:02:12;;;;;;;10.10;7.63;;;22.30;99.90;;;;;;5138926;27;20217;-77
2022/07/23 00:04:40;;;;;;;9.20;7.40;;;22.30;99.90;;;;;;5137544;27;20231;-75
2022/07/23 00:07:08;;;;;;;8.90;7.20;;;22.30;99.90;;;;;;5135054;27;20218;-76
2022/07/23 00:09:37;;;;;;;8.13;7.20;;;22.30;99.90;;;;;;5117903;28;20234;-77
2022/07/23 00:12:06;;;;;;;9.17;7.00;;;22.40;99.90;;;;;;5119163;28;20210;-77
2022/07/23 00:14:37;;;;;;;7.53;6.83;;;22.40;99.90;;;;;;5118778;28;20206;-75
2022/07/23 00:17:07;;;;;;;8.07;6.80;;;22.40;99.90;;;;;;5118926;28;20205;-78
2022/07/23 00:19:35;;;;;;;8.07;7.27;;;22.40;99.90;;;;;;5117815;28;20232;-77
2022/07/23 00:22:04;;;;;;;7.10;6.37;;;22.40;99.90;;;;;;5117824;28;20293;-78
2022/07/23 00:24:32;;;;;;;7.90;7.00;;;22.30;99.90;;;;;;5118744;28;20240;-76
2022/07/23 00:27:00;;;;;;;7.80;6.93;;;22.30;99.90;;;;;;5118713;28;20222;-77
2022/07/23 00:29:28;;;;;;;7.60;6.80;;;22.30;99.90;;;;;;5120148;28;20205;-77
2022/07/23 00:31:59;;;;;;;8.33;6.73;;;22.20;99.90;;;;;;5120492;28;20226;-77
2022/07/23 00:34:31;;;;;;;7.40;6.70;;;22.20;99.90;;;;;;5120634;28;20217;-77
2022/07/23 00:36:59;;;;;;;9.10;7.00;;;22.10;99.90;;;;;;5120318;28;20225;-78
2022/07/23 00:39:27;;;;;;;7.47;6.67;;;22.00;99.90;;;;;;5126601;27;20261;-76
2022/07/23 00:41:55;;;;;;;6.80;6.13;;;22.00;99.90;;;;;;5140830;28;20618;-78
2022/07/23 00:44:25;;;;;;;7.77;6.87;;;22.00;99.90;;;;;;5139832;28;20221;-76
2022/07/23 00:46:55;;;;;;;7.10;6.07;;;22.00;99.90;;;;;;5123180;28;20573;-77
2022/07/23 00:49:25;;;;;;;6.60;5.90;;;22.10;99.90;;;;;;5116354;28;20210;-77
2022/07/23 00:51:55;;;;;;;7.30;5.87;;;22.20;99.90;;;;;;5116981;28;20253;-77
2022/07/23 00:54:25;;;;;;;6.83;6.13;;;22.20;99.90;;;;;;5119633;28;20190;-79
2022/07/23 00:56:53;;;;;;;7.97;5.90;;;22.20;99.90;;;;;;5137749;27;20210;-78
2022/07/23 00:59:22;;;;;;;8.90;6.20;;;22.20;99.90;;;;;;5121259;27;20289;-76
2022/07/23 01:01:50;;;;;;;7.20;6.50;;;22.10;99.90;;;;;;5121156;28;20719;-78
2022/07/23 01:04:18;;;;;;;9.17;6.30;;;22.10;99.90;;;;;;5120855;28;20205;-75
2022/07/23 01:06:47;;;;;;;6.83;6.03;;;22.10;99.90;;;;;;5120766;28;20263;-77
2022/07/23 01:09:20;;;;;;;7.40;6.60;;;22.00;99.90;;;;;;5121577;28;20214;-78
2022/07/23 01:11:52;;;;;;;7.10;6.40;;;22.00;99.90;;;;;;5131069;27;20254;-78
2022/07/23 01:14:20;;;;;;;7.10;6.13;;;21.90;99.90;;;;;;5141763;27;20205;-77
2022/07/23 01:16:49;;;;;;;7.23;6.53;;;21.80;99.90;;;;;;5143723;27;20285;-75
2022/07/23 01:19:18;;;;;;;7.40;6.30;;;21.70;99.90;;;;;;5141394;27;20201;-76
2022/07/23 01:21:49;;;;;;;7.20;6.50;;;21.70;99.90;;;;;;5142698;27;20213;-76
2022/07/23 01:24:19;;;;;;;7.83;6.27;;;21.60;99.90;;;;;;5141420;27;20612;-76
2022/07/23 01:26:49;;;;;;;7.87;6.37;;;21.50;99.90;;;;;;5141064;27;20292;-76
2022/07/23 01:29:19;;;;;;;7.60;6.33;;;21.40;99.90;;;;;;5140964;27;20231;-78
2022/07/23 01:31:48;;;;;;;6.93;6.23;;;21.30;99.90;;;;;;5140262;27;20240;-77
2022/07/23 01:34:16;;;;;;;7.20;6.50;;;21.30;99.90;;;;;;5139951;27;20241;-75
2022/07/23 01:36:45;;;;;;;8.00;6.50;;;21.30;99.90;;;;;;5125635;27;20270;-75
2022/07/23 01:39:13;;;;;;;7.37;6.67;;;21.30;99.90;;;;;;5122644;27;20214;-77
2022/07/23 01:41:45;;;;;;;8.20;7.00;;;21.40;99.90;;;;;;5122143;27;20214;-79
2022/07/23 01:44:18;;;;;;;9.07;7.50;;;21.60;99.90;;;;;;5124315;28;20232;-77
2022/07/23 01:46:46;;;;;;;8.50;7.37;;;21.80;99.90;;;;;;5121440;27;20262;-78
2022/07/23 01:49:14;;;;;;;11.63;6.70;;;21.90;99.90;;;;;;5141441;27;20202;-76
2022/07/23 01:54:27;;;;;;;10.70;5.53;;;22.00;99.90;;;;;;5142981;27;20197;-77
2022/07/23 01:57:00;;;;;;;10.33;5.37;;;22.00;99.90;;;;;;5142884;27;20234;-76
2022/07/23 01:59:29;;;;;;;14.33;5.90;;;22.00;99.90;;;;;;5126437;27;20218;-78
2022/07/23 02:01:57;;;;;;;10.67;5.60;;;22.00;99.90;;;;;;5118360;28;20255;-76
2022/07/23 02:04:26;;;;;;;8.43;5.90;;;22.00;99.90;;;;;;5118813;28;20271;-76
2022/07/23 02:06:55;;;;;;;8.60;6.03;;;21.90;99.90;;;;;;5120278;28;20225;-76
2022/07/23 02:09:23;;;;;;;12.40;6.17;;;21.80;99.90;;;;;;5119663;28;20232;-78
2022/07/23 02:11:54;;;;;;;8.40;5.97;;;21.80;99.90;;;;;;5118760;28;20675;-74
2022/07/23 02:14:24;;;;;;;8.10;5.07;;;21.70;99.90;;;;;;5120213;27;20258;-78
2022/07/23 02:16:52;;;;;;;7.30;4.90;;;21.60;99.90;;;;;;5136054;27;20217;-77
2022/07/23 02:19:21;;;;;;;7.77;4.83;;;21.50;99.90;;;;;;5140286;27;20274;-74
2022/07/23 02:21:51;;;;;;;5.73;4.93;;;21.40;99.90;;;;;;5136020;27;20205;-76
2022/07/23 02:24:19;;;;;;;7.63;5.03;;;21.30;99.90;;;;;;5118519;28;20237;-74
2022/07/23 02:26:47;;;;;;;8.90;4.80;;;21.20;99.90;;;;;;5136969;27;20252;-75
2022/07/23 02:29:18;;;;;;;7.50;5.20;;;21.10;99.90;;;;;;5140813;27;20197;-76
2022/07/23 02:31:48;;;;;;;7.30;4.93;;;20.80;99.90;;;;;;5138636;27;20237;-75
2022/07/23 02:34:16;;;;;;;6.33;4.40;;;20.50;99.90;;;;;;5135998;27;20758;-75
2022/07/23 02:36:44;;;;;;;5.80;4.60;;;20.30;99.90;;;;;;5121283;27;20759;-77
2022/07/23 02:39:15;;;;;;;8.77;4.47;;;20.00;99.90;;;;;;5115010;28;20663;-73
2022/07/23 02:41:43;;;;;;;6.70;4.40;;;19.80;99.90;;;;;;5115112;28;20240;-74
2022/07/23 02:44:11;;;;;;;7.43;3.90;;;19.60;99.90;;;;;;5114479;28;20297;-74
2022/07/23 02:46:40;;;;;;;6.67;4.30;;;19.30;99.90;;;;;;5115337;28;20271;-76
2022/07/23 02:49:09;;;;;;;6.63;4.10;;;19.20;99.90;;;;;;5114608;27;20640;-75
2022/07/23 02:51:37;;;;;;;7.83;4.50;;;19.00;99.90;;;;;;5114671;28;20210;-77
2022/07/23 02:54:06;;;;;;;7.97;4.57;;;18.80;99.90;;;;;;5114595;28;20728;-79
2022/07/23 02:56:35;;;;;;;5.57;4.20;;;18.70;99.90;;;;;;5114317;28;20629;-77
2022/07/23 02:59:03;;;;;;;6.33;4.33;;;18.60;99.90;;;;;;5114219;28;20210;-76
2022/07/23 03:01:32;;;;;;;6.17;4.27;;;18.60;99.90;;;;;;5114672;27;20213;-76
2022/07/23 03:04:01;;;;;;;7.07;4.87;;;18.40;99.90;;;;;;5115275;28;20208;-73
2022/07/23 03:06:35;;;;;;;6.17;4.43;;;18.30;99.90;;;;;;5118028;27;20309;-76
2022/07/23 03:09:04;;;;;;;7.87;4.80;;;18.20;99.90;;;;;;5116966;28;20296;-75
2022/07/23 03:11:32;;;;;;;8.83;5.40;;;18.20;99.90;;;;;;5117598;27;20206;-74
2022/07/23 03:14:00;;;;;;;7.17;5.50;;;18.10;99.90;;;;;;5114550;28;20310;-75
2022/07/23 03:16:28;;;;;;;8.37;5.47;;;18.00;99.90;;;;;;5114358;28;20695;-75
2022/07/23 03:18:57;;;;;;;7.30;5.13;;;18.00;99.90;;;;;;5114109;28;20202;-77
2022/07/23 03:21:31;;;;;;;6.77;5.37;;;18.00;99.90;;;;;;5114822;27;20288;-73
2022/07/23 03:23:59;;;;;;;7.77;5.50;;;18.00;99.90;;;;;;5114007;28;20277;-76
2022/07/23 03:26:28;;;;;;;6.80;4.80;;;17.90;99.90;;;;;;5114001;28;20680;-77
2022/07/23 03:28:56;;;;;;;7.43;4.80;;;17.90;99.90;;;;;;5113900;28;20248;-75
2022/07/23 03:31:25;;;;;;;6.13;5.37;;;17.80;99.90;;;;;;5113926;28;20210;-76
2022/07/23 03:33:53;;;;;;;8.17;5.70;;;17.80;99.90;;;;;;5114150;28;20210;-77
2022/07/23 03:36:21;;;;;;;6.73;5.00;;;17.80;99.90;;;;;;5114002;28;20230;-75
2022/07/23 03:38:53;;;;;;;5.83;5.10;;;17.80;99.90;;;;;;5113695;28;20197;-75
2022/07/23 03:41:22;;;;;;;7.07;5.20;;;17.80;99.90;;;;;;5126974;27;20659;-77
2022/07/23 03:43:50;;;;;;;6.73;5.00;;;17.90;99.90;;;;;;5121708;27;20665;-76
2022/07/23 03:46:21;;;;;;;6.90;5.20;;;17.90;99.90;;;;;;5115914;27;20285;-77
2022/07/23 03:48:49;;;;;;;6.47;5.00;;;17.90;99.90;;;;;;5113070;28;20697;-74
2022/07/23 03:51:25;;;;;;;6.67;4.77;;;17.90;99.90;;;;;;5113981;28;20301;-74
2022/07/23 03:53:55;;;;;;;6.93;4.73;;;18.00;99.90;;;;;;5113524;28;20759;-75
2022/07/23 03:56:24;;;;;;;6.47;4.80;;;17.90;99.90;;;;;;5113695;28;20698;-74
2022/07/23 03:58:52;;;;;;;7.47;4.77;;;17.90;99.90;;;;;;5122085;27;20229;-75
2022/07/23 04:01:20;;;;;;;6.80;4.93;;;17.90;99.90;;;;;;5133508;27;20248;-76
2022/07/23 04:03:49;;;;;;;7.73;4.83;;;17.90;99.90;;;;;;5133830;27;20209;-74
2022/07/23 04:06:20;;;;;;;6.43;4.60;;;17.90;99.90;;;;;;5133602;27;20226;-78
2022/07/23 04:08:49;;;;;;;5.87;3.97;;;17.90;99.90;;;;;;5134617;27;20242;-79
2022/07/23 04:11:19;;;;;;;6.90;4.00;;;18.00;99.90;;;;;;5120522;27;20209;-77
2022/07/23 04:13:47;;;;;;;8.33;4.20;;;18.00;99.90;;;;;;5114311;28;20301;-77
2022/07/23 04:16:15;;;;;;;5.13;3.90;;;18.00;99.90;;;;;;5112916;28;20248;-77
2022/07/23 04:18:43;;;;;;;4.40;4.00;;;17.90;99.90;;;;;;5129407;27;20207;-76
2022/07/23 04:21:12;;;;;;;10.00;3.57;;;18.00;99.90;;;;;;5134011;27;20212;-75
2022/07/23 04:23:40;;;;;;;6.03;4.00;;;17.90;99.90;;;;;;5134037;27;20300;-77
2022/07/23 04:26:08;;;;;;;7.73;3.40;;;18.00;99.90;;;;;;5129814;27;20213;-78
2022/07/23 04:28:45;;;;;;;4.70;3.67;;;18.00;99.90;;;;;;5132818;27;20274;-76
2022/07/23 04:31:14;;;;;;;7.47;3.53;;;18.00;99.90;;;;;;5133457;27;20201;-77
2022/07/23 04:33:42;;;;;;;4.83;3.80;;;18.00;99.90;;;;;;5133313;27;20213;-77
2022/07/23 04:36:10;;;;;;;6.50;3.73;;;18.10;99.90;;;;;;5116989;28;20660;-77
2022/07/23 04:38:38;;;;;;;4.97;3.17;;;18.10;99.90;;;;;;5112944;28;20259;-78
2022/07/23 04:41:07;;;;;;;4.20;3.40;;;18.10;99.90;;;;;;5112883;28;20206;-77
2022/07/23 04:43:35;;;;;;;3.60;3.30;;;18.10;99.90;;;;;;5133017;28;20218;-77
2022/07/23 04:46:05;;;;;;;4.77;3.63;;;18.10;99.90;;;;;;5126090;28;20621;-77
2022/07/23 04:48:34;;;;;;;5.13;3.80;;;18.20;99.90;;;;;;5113859;28;20226;-77
2022/07/23 04:51:03;;;;;;;4.03;3.63;;;18.20;99.90;;;;;;5111991;28;20217;-79
2022/07/23 04:53:31;;;;;;;5.00;3.93;;;18.20;99.90;;;;;;5112004;28;20230;-77
2022/07/23 04:56:01;;;;;;;4.27;3.87;;;18.30;99.90;;;;;;5115751;28;20204;-77
2022/07/23 04:58:31;;;;;;;5.53;3.90;;;18.30;99.90;;;;;;5112136;28;20290;-76
2022/07/23 05:00:59;;;;;;;5.20;3.90;;;18.30;99.90;;;;;;5112074;28;20285;-75
2022/07/23 05:03:29;;;;;;;5.10;3.60;;;18.40;99.90;;;;;;5112348;28;20239;-77
2022/07/23 05:05:57;;;;;;;5.77;4.07;;;18.40;99.90;;;;;;5112533;28;20272;-77
2022/07/23 05:08:26;;;;;;;5.80;3.90;;;18.50;99.90;;;;;;5112528;28;20340;-76
2022/07/23 05:10:54;;;;;;;6.57;4.10;;;18.50;99.90;;;;;;5111916;28;20244;-77
2022/07/23 05:13:23;;;;;;;4.93;4.43;;;18.60;99.90;;;;;;5112514;28;20225;-76
2022/07/23 05:15:51;;;;;;;6.57;3.80;;;18.60;99.90;;;;;;5112865;28;20241;-76
2022/07/23 05:18:19;;;;;;;4.50;4.10;;;18.60;99.90;;;;;;5125959;28;21567;-79
2022/07/23 05:20:52;;;;;;;4.70;4.00;;;18.70;99.90;;;;;;5129564;28;20246;-77
2022/07/23 05:23:20;;;;;;;5.00;4.17;;;18.70;99.90;;;;;;5130013;28;20349;-78
2022/07/23 05:25:49;;;;;;;4.50;3.83;;;18.70;99.90;;;;;;5136033;28;20200;-75
2022/07/23 05:28:17;;;;;;;4.70;4.20;;;18.70;99.90;;;;;;5139147;28;20630;-75
2022/07/23 05:30:49;;;;;;;5.47;3.67;;;18.80;99.90;;;;;;5135636;28;20194;-79
2022/07/23 05:33:20;;;;;;;4.70;3.70;;;18.90;99.90;;;;;;5131121;28;20201;-76
2022/07/23 05:35:51;;;;;;;4.40;3.73;;;18.90;99.90;;;;;;5133011;28;20198;-77
2022/07/23 05:38:20;;;;;;;6.37;4.00;;;18.90;99.90;;;;;;5131289;28;20186;-77
2022/07/23 05:40:48;;;;;;;6.73;4.07;;;19.00;99.90;;;;;;5129528;27;20249;-78
2022/07/23 05:43:16;;;;;;;5.27;4.00;;;19.00;99.90;;;;;;5127893;27;20217;-78
2022/07/23 05:45:44;;;;;;;5.70;4.37;;;19.00;99.90;;;;;;5118810;28;20202;-77
2022/07/23 05:48:15;;;;;;;5.33;4.60;;;19.00;99.90;;;;;;5121606;27;20261;-77
2022/07/23 05:50:43;;;;;;;5.10;4.60;;;19.00;99.90;;;;;;5136391;27;20312;-77
2022/07/23 05:53:12;;;;;;;5.33;4.50;;;19.00;99.90;;;;;;5136377;27;20235;-79
2022/07/23 05:55:41;;;;;;;5.17;4.40;;;19.10;99.90;;;;;;5136163;27;20671;-78
2022/07/23 05:58:12;;;;;;;4.93;4.43;;;19.10;99.90;;;;;;5134792;27;20328;-75
2022/07/23 06:00:43;;;;;;;5.97;4.60;;;19.10;99.90;;;;;;5128373;27;20217;-74
2022/07/23 06:03:11;;;;;;;5.80;4.57;;;19.10;99.90;;;;;;5115644;28;20194;-74
2022/07/23 06:05:39;;;;;;;4.80;4.30;;;19.20;99.90;;;;;;5116063;28;20249;-76
2022/07/23 06:08:07;;;;;;;4.90;4.37;;;19.30;99.90;;;;;;5115765;28;20305;-77
2022/07/23 06:10:37;;;;;;;5.10;4.60;;;19.40;99.90;;;;;;5115991;27;20202;-77
2022/07/23 06:13:05;;;;;;;5.27;4.77;;;19.50;99.90;;;;;;5116220;28;20241;-79
2022/07/23 06:15:33;;;;;;;5.83;4.60;;;19.50;99.90;;;;;;5115593;28;20740;-79
2022/07/23 06:18:02;;;;;;;5.20;4.70;;;19.50;99.90;;;;;;5115518;28;20621;-78
2022/07/23 06:20:30;;;;;;;5.30;4.77;;;19.60;99.90;;;;;;5115529;28;20203;-79
2022/07/23 06:22:59;;;;;;;5.53;5.03;;;19.70;99.90;;;;;;5115353;27;20229;-77
2022/07/23 06:25:27;;;;;;;5.97;4.80;;;19.60;99.90;;;;;;5115469;27;20209;-76
2022/07/23 06:27:57;;;;;;;7.00;4.67;;;19.80;99.90;;;;;;5116101;28;20240;-74
2022/07/23 06:30:25;;;;;;;6.57;5.07;;;19.90;99.90;;;;;;5117668;28;20233;-77
2022/07/23 06:32:55;;;;;;;5.87;4.87;;;20.00;99.90;;;;;;5117044;28;20194;-75
2022/07/23 06:35:24;;;;;;;6.10;5.03;;;20.20;99.90;;;;;;5133457;27;20295;-77
2022/07/23 06:37:53;;;;;;;6.90;5.00;;;20.30;99.90;;;;;;5137025;27;20209;-76
2022/07/23 06:40:22;;;;;;;7.23;5.13;;;20.30;99.90;;;;;;5122606;27;20667;-74
2022/07/23 06:42:50;;;;;;;6.20;5.13;;;20.30;99.90;;;;;;5134629;27;20214;-75
2022/07/23 06:45:20;;;;;;;6.47;5.10;;;20.40;99.90;;;;;;5115894;27;20233;-77
2022/07/23 06:47:48;;;;;;;7.37;5.33;;;20.50;99.90;;;;;;5128711;27;20263;-74
2022/07/23 06:50:16;;;;;;;9.03;5.20;;;20.50;99.90;;;;;;5134710;27;20241;-75
2022/07/23 06:52:46;;;;;;;6.07;5.50;;;20.50;99.90;;;;;;5135251;27;20209;-76
2022/07/23 06:55:14;;;;;;;8.50;5.60;;;20.50;99.90;;;;;;5130028;27;20259;-77
2022/07/23 06:57:42;;;;;;;5.63;5.13;;;20.60;99.90;;;;;;5116174;28;20210;-74
2022/07/23 07:00:12;;;;;;;6.57;5.47;;;20.70;99.90;;;;;;5115018;28;20240;-74
2022/07/23 07:02:42;;;;;;;5.60;5.10;;;20.80;99.90;;;;;;5117187;27;20233;-74
2022/07/23 07:05:11;;;;;;;7.07;5.50;;;20.90;99.90;;;;;;5135790;27;20221;-74
2022/07/23 07:07:39;;;;;;;6.50;4.97;;;21.10;99.90;;;;;;5133912;27;20256;-76
2022/07/23 07:10:08;;;;;;;7.30;5.73;;;21.10;99.90;;;;;;5134817;27;20305;-76
2022/07/23 07:12:43;;;;;;;9.63;5.50;;;21.00;99.90;;;;;;5135690;27;20246;-75
2022/07/23 07:15:11;;;;;;;7.23;5.40;;;21.00;99.90;;;;;;5134942;27;20244;-76
2022/07/23 07:17:40;;;;;;;5.90;5.27;;;20.80;99.90;;;;;;5133796;27;20216;-74
2022/07/23 07:20:16;;;;;;;6.53;5.57;;;20.80;99.90;;;;;;5131684;27;20331;-75
2022/07/23 07:22:45;;;;;;;6.03;5.43;;;20.80;99.90;;;;;;5134822;27;20201;-75
2022/07/23 07:25:14;;;;;;;7.70;5.57;;;20.80;99.90;;;;;;5135554;27;20236;-74
2022/07/23 07:27:43;;;;;;;6.40;5.50;;;21.00;99.90;;;;;;5135342;27;20255;-78
2022/07/23 07:30:13;;;;;;;6.80;5.13;;;21.30;99.90;;;;;;5123058;27;20682;-75
2022/07/23 07:32:41;;;;;;;7.83;5.40;;;21.50;99.90;;;;;;5123504;27;20651;-74
2022/07/23 07:35:27;;;;;;;7.00;5.20;;;21.60;99.90;;;;;;5134796;27;20222;-75
2022/07/23 07:37:55;;;;;;;6.20;5.23;;;21.70;99.90;;;;;;5125530;27;20206;-77
2022/07/23 07:40:24;;;;;;;7.00;5.00;;;21.90;99.90;;;;;;5117497;27;20205;-75
2022/07/23 07:42:58;;;;;;;6.53;5.20;;;22.00;99.90;;;;;;5131830;27;20247;-75
2022/07/23 07:45:29;;;;;;;5.63;5.03;;;22.00;99.90;;;;;;5130605;27;20225;-76
2022/07/23 07:47:58;;;;;;;5.87;5.23;;;22.00;99.90;;;;;;5130087;27;20672;-74
2022/07/23 07:50:29;;;;;;;6.27;5.10;;;22.10;99.90;;;;;;5128258;27;20572;-75
2022/07/23 07:52:59;;;;;;;5.80;4.70;;;22.20;99.90;;;;;;5133697;27;20254;-73
2022/07/23 07:55:31;;;;;;;5.80;5.30;;;22.40;99.90;;;;;;5134023;27;20194;-76
2022/07/23 07:58:01;;;;;;;6.53;5.37;;;22.50;99.90;;;;;;5134218;27;20193;-74
2022/07/23 08:00:29;;;;;;;7.97;5.60;;;22.60;99.90;;;;;;5118532;27;20206;-75
2022/07/23 08:03:00;;;;;;;6.73;5.40;;;22.50;99.90;;;;;;5113648;28;20194;-73
2022/07/23 08:05:32;;;;;;;8.60;5.83;;;22.40;99.90;;;;;;5114171;28;20309;-75
2022/07/23 08:08:00;;;;;;;7.80;5.60;;;22.20;99.90;;;;;;5117918;28;20293;-74
2022/07/23 08:10:32;;;;;;;6.07;5.33;;;22.10;99.90;;;;;;5113089;28;20287;-78
2022/07/23 08:13:01;;;;;;;7.67;5.50;;;22.00;99.90;;;;;;5132770;27;20206;-77
2022/07/23 08:15:31;;;;;;;6.83;5.73;;;21.90;99.90;;;;;;5135232;27;20213;-78
2022/07/23 08:18:03;;;;;;;7.07;6.10;;;21.80;99.90;;;;;;5131524;27;20216;-75
2022/07/23 08:20:33;;;;;;;7.73;6.00;;;21.80;99.90;;;;;;5134420;27;20684;-77
2022/07/23 08:23:06;;;;;;;11.07;6.27;;;21.60;99.90;;;;;;5130607;27;20231;-76
2022/07/23 08:25:37;;;;;;;7.10;6.40;;;21.50;99.90;;;;;;5114297;28;20197;-77
2022/07/23 08:28:07;;;;;;;7.70;6.40;;;21.40;99.90;;;;;;5115084;28;20190;-78
2022/07/23 08:30:39;;;;;;;7.17;6.30;;;21.30;99.90;;;;;;5115545;28;20651;-75
2022/07/23 08:33:11;;;;;;;7.80;6.60;;;21.20;99.90;;;;;;5115549;28;20234;-77
2022/07/23 08:36:02;;;;;;;7.37;6.33;;;21.20;99.90;;;;;;5121812;27;20215;-76
2022/07/23 08:38:31;;;;;;;11.33;6.40;;;21.10;99.90;;;;;;5137950;27;20196;-77
2022/07/23 08:41:00;;;;;;;10.57;6.60;;;21.00;99.90;;;;;;5138989;27;20227;-77
2022/07/23 08:43:30;;;;;;;7.10;6.40;;;21.00;99.90;;;;;;5136927;27;20258;-76
2022/07/23 08:46:01;;;;;;;8.40;6.93;;;21.00;99.90;;;;;;5136048;28;20205;-79
2022/07/23 08:48:30;;;;;;;8.57;6.77;;;20.90;99.90;;;;;;5134382;28;20229;-78
2022/07/23 08:51:01;;;;;;;9.47;6.70;;;20.80;99.90;;;;;;5136146;28;20225;-77
2022/07/23 08:53:31;;;;;;;8.90;6.90;;;20.80;99.90;;;;;;5134760;28;20580;-77
2022/07/23 08:56:01;;;;;;;11.30;7.17;;;20.90;99.90;;;;;;5137016;28;20262;-76
2022/07/23 08:58:30;;;;;;;7.63;6.93;;;21.00;99.90;;;;;;5135137;28;20213;-76
2022/07/23 09:00:58;;;;;;;7.90;7.10;;;21.00;99.90;;;;;;5116596;28;20206;-76
2022/07/23 09:03:38;;;;;;;7.40;6.70;;;21.10;99.90;;;;;;5115292;28;20201;-77
2022/07/23 09:06:08;;;;;;;8.60;6.77;;;21.20;99.90;;;;;;5115819;28;20229;-75
2022/07/23 09:08:38;;;;;;;8.50;6.97;;;21.30;99.90;;;;;;5112737;28;20241;-75
2022/07/23 09:11:09;;;;;;;10.37;6.93;;;21.50;99.90;;;;;;5111508;28;20715;-74
2022/07/23 09:13:40;;;;;;;8.83;7.20;;;21.50;99.90;;;;;;5112453;28;20190;-74
2022/07/23 09:16:12;;;;;;;8.70;6.83;;;21.50;99.90;;;;;;5113850;28;20292;-74
2022/07/23 09:18:44;;;;;;;7.83;6.73;;;21.60;99.90;;;;;;5116228;28;20270;-76
2022/07/23 09:21:23;;;;;;;8.30;7.13;;;21.60;99.90;;;;;;5116122;28;20244;-75
2022/07/23 09:24:00;;;;;;;9.03;6.93;;;21.70;99.90;;;;;;5116171;28;20712;-76
2022/07/23 09:26:36;;;;;;;8.57;7.33;;;21.50;99.90;;;;;;5116660;28;20210;-73
2022/07/23 09:29:10;;;;;;;8.83;7.27;;;21.50;99.90;;;;;;5115927;28;20186;-76
2022/07/23 09:31:50;;;;;;;8.77;7.13;;;21.40;99.90;;;;;;5116192;28;20270;-79
2022/07/23 09:34:21;;;;;;;8.73;7.07;;;21.40;99.90;;;;;;5118546;27;20190;-77
2022/07/23 09:36:54;;;;;;;8.07;7.20;;;21.40;99.90;;;;;;5120392;27;20202;-75
2022/07/23 09:39:29;;;;;;;11.17;7.27;;;21.50;99.90;;;;;;5115441;28;20229;-77
2022/07/23 09:41:59;;;;;;;8.10;6.90;;;21.60;99.90;;;;;;5116061;28;20794;-75
2022/07/23 09:44:27;;;;;;;8.10;6.80;;;21.70;99.90;;;;;;5116324;28;20229;-77
2022/07/23 09:47:01;;;;;;;9.00;7.10;;;22.00;99.90;;;;;;5115943;27;20245;-77
2022/07/23 09:49:30;;;;;;;8.70;6.53;;;22.40;99.90;;;;;;5125495;27;20589;-76
2022/07/23 09:52:01;;;;;;;7.53;6.60;;;22.80;99.90;;;;;;5135922;27;20316;-78
2022/07/23 09:54:35;;;;;;;8.10;6.73;;;23.40;99.90;;;;;;5135699;27;20190;-74
2022/07/23 09:57:07;;;;;;;7.13;6.17;;;23.80;99.90;;;;;;5132878;27;20225;-74
2022/07/23 09:59:37;;;;;;;6.20;5.60;;;24.40;99.90;;;;;;5128041;27;20198;-77
2022/07/23 10:02:09;;;;;;;7.37;5.67;;;25.20;99.90;;;;;;5126077;27;20246;-76
2022/07/23 10:04:38;;;;;;;6.57;5.43;;;26.10;99.90;;;;;;5134974;27;20246;-76
2022/07/23 10:07:10;;;;;;;6.13;5.53;;;27.00;99.90;;;;;;5135266;27;20244;-77
2022/07/23 10:09:39;;;;;;;6.30;4.80;;;27.60;99.90;;;;;;5135105;27;20613;-77
2022/07/23 10:14:53;;;;;;;7.95;4.50;;;28.30;99.90;;;;;;5112723;28;20209;-76
2022/07/23 10:17:22;;;;;;;5.65;4.28;;;29.20;99.90;;;;;;5121859;27;20292;-75
2022/07/23 10:19:50;;;;;;;5.22;4.28;;;30.20;99.90;;;;;;5117297;27;20213;-77
2022/07/23 10:22:26;;;;;;;5.93;4.15;;;31.40;99.90;;;;;;5118316;27;20225;-74
2022/07/23 10:25:04;;;;;;;4.88;4.00;;;31.90;99.90;;;;;;5119627;27;20243;-76
2022/07/23 10:28:16;;;;;;;4.85;4.00;;;32.70;99.90;;;;;;5113940;28;20230;-76
2022/07/23 10:30:51;;;;;;;5.15;3.85;;;33.10;98.60;;;;;;5110062;28;20275;-77
2022/07/23 10:33:34;;;;;;;4.93;3.83;;;34.00;98.70;;;;;;5120309;27;20630;-79
2022/07/23 10:36:08;;;;;;;5.13;4.13;;;33.70;98.50;;;;;;5120113;27;20198;-76
2022/07/23 10:38:48;;;;;;;4.75;4.05;;;34.40;97.10;;;;;;5115048;28;20255;-77
2022/07/23 10:41:31;;;;;;;4.82;4.35;;;34.30;93.30;;;;;;5114357;28;20223;-76
2022/07/23 10:44:08;;;;;;;5.28;4.20;;;33.50;95.60;;;;;;5114309;28;20380;-77
2022/07/23 10:46:43;;;;;;;7.35;4.90;;;33.60;96.70;;;;;;5114293;28;20198;-75
2022/07/23 10:49:27;;;;;;;5.22;4.72;;;34.00;94.70;;;;;;5114477;28;20205;-78
2022/07/23 10:52:23;;;;;;;5.70;4.47;;;34.20;94.20;;;;;;5114064;28;20250;-78
2022/07/23 10:55:17;;;;;;;5.38;4.88;;;34.20;93.30;;;;;;5113961;28;20737;-77
2022/07/23 10:57:50;;;;;;;6.07;4.50;;;33.90;93.30;;;;;;5113479;28;20284;-78
2022/07/23 11:00:23;;;;;;;4.90;4.18;;;34.10;93.00;;;;;;5113878;28;20243;-79
2022/07/23 11:02:55;;;;;;;4.53;4.13;;;34.00;92.80;;;;;;5113619;28;20210;-77
2022/07/23 11:05:26;;;;;;;7.47;4.82;;;33.60;94.00;;;;;;5113793;28;20230;-77
2022/07/23 11:08:19;;;;;;;6.30;4.85;;;33.80;94.40;;;;;;5113877;28;20267;-77
2022/07/23 11:10:52;;;;;;;6.78;4.60;;;33.70;94.60;;;;;;5113775;28;20719;-77
2022/07/23 11:13:37;;;;;;;7.15;4.35;;;33.80;95.10;;;;;;5119040;27;20241;-78
2022/07/23 11:16:18;;;;;;;5.82;5.05;;;33.40;94.00;;;;;;5113722;28;20197;-77
2022/07/23 11:19:09;;;;;;;7.43;4.60;;;33.20;93.40;;;;;;5114527;28;20201;-77
2022/07/23 11:21:53;;;;;;;6.13;4.45;;;32.60;95.50;;;;;;5113494;28;20202;-78
2022/07/23 11:24:23;;;;;;;6.50;4.90;;;31.50;96.00;;;;;;5113004;28;20210;-78
2022/07/23 11:26:55;;;;;;;6.72;5.00;;;31.00;96.10;;;;;;5113471;28;20240;-76
2022/07/23 11:29:47;;;;;;;5.93;5.00;;;30.90;98.50;;;;;;5113449;28;20206;-76
2022/07/23 11:32:38;;;;;;;6.00;4.40;;;31.00;98.80;;;;;;5122028;27;20675;-77
2022/07/23 11:35:27;;;;;;;5.50;4.50;;;31.10;98.00;;;;;;5134451;27;20186;-75
2022/07/23 11:38:05;;;;;;;4.70;4.20;;;31.20;98.30;;;;;;5113100;28;20206;-75
2022/07/23 11:40:33;;;;;;;5.50;4.38;;;31.20;98.90;;;;;;5113028;28;20601;-79
2022/07/23 11:43:06;;;;;;;4.75;4.32;;;31.60;96.20;;;;;;5113074;28;20248;-78
2022/07/23 11:45:36;;;;;;;6.28;4.00;;;31.40;96.00;;;;;;5113785;28;20190;-78
2022/07/23 11:48:06;;;;;;;5.65;4.10;;;31.00;95.80;;;;;;5116181;27;20240;-78
2022/07/23 11:50:35;;;;;;;6.13;4.30;;;31.00;95.10;;;;;;5116030;28;20186;-75
2022/07/23 11:53:06;;;;;;;5.35;4.40;;;30.60;96.10;;;;;;5113315;28;20225;-78
2022/07/23 11:55:36;;;;;;;5.20;4.45;;;30.30;95.60;;;;;;5113321;28;20209;-79
2022/07/23 11:58:07;;;;;;;6.40;4.60;;;30.00;97.90;;;;;;5113680;28;20309;-77
2022/07/23 12:00:35;;;;;;;6.53;4.43;;;29.80;96.80;;;;;;5112924;27;20732;-76
2022/07/23 12:03:08;;;;;;;5.60;4.60;;;29.30;96.10;;;;;;5113478;28;20212;-77
2022/07/23 12:05:38;;;;;;;5.23;4.23;;;29.10;97.10;;;;;;5113492;28;20226;-79
2022/07/23 12:08:08;;;;;;;5.87;4.50;;;28.70;97.50;;;;;;5113255;28;20212;-73
2022/07/23 12:10:41;;;;;;;5.67;4.40;;;28.70;99.30;;;;;;5113672;28;20248;-79
2022/07/23 12:13:12;;;;;;;5.00;4.40;;;28.70;98.70;;;;;;5113710;27;20695;-75
2022/07/23 12:15:43;;;;;;;4.83;4.30;;;28.80;98.60;;;;;;5113443;28;20221;-75
2022/07/23 12:18:13;;;;;;;5.47;4.20;;;28.70;98.80;;;;;;5112864;28;20264;-76
2022/07/23 12:20:44;;;;;;;5.30;4.23;;;29.10;98.30;;;;;;5113012;28;20226;-76
2022/07/23 12:23:15;;;;;;;6.63;4.60;;;29.40;99.30;;;;;;5113859;28;20230;-76
2022/07/23 12:25:49;;;;;;;4.90;4.17;;;29.50;98.30;;;;;;5113133;28;20202;-78
2022/07/23 12:28:21;;;;;;;5.53;4.27;;;29.20;96.30;;;;;;5113490;27;20206;-76
2022/07/23 12:30:50;;;;;;;5.10;4.50;;;29.10;97.70;;;;;;5121412;27;20206;-77
2022/07/23 12:33:25;;;;;;;5.70;4.37;;;29.20;97.70;;;;;;5133763;27;20319;-77
2022/07/23 12:35:55;;;;;;;5.57;4.70;;;29.40;97.20;;;;;;5133153;27;20711;-75
2022/07/23 12:38:25;;;;;;;7.37;4.70;;;29.80;98.90;;;;;;5133595;27;20201;-76
2022/07/23 12:40:54;;;;;;;6.77;4.77;;;29.90;98.00;;;;;;5133579;27;20225;-74
2022/07/23 12:43:28;;;;;;;7.03;5.93;;;29.80;97.50;;;;;;5133778;27;20236;-76
2022/07/23 12:45:58;;;;;;;7.43;5.50;;;29.20;95.80;;;;;;5133152;27;20491;-77
2022/07/23 12:48:30;;;;;;;7.93;5.20;;;28.90;95.40;;;;;;5121316;28;20200;-77
2022/07/23 12:51:00;;;;;;;7.17;5.43;;;28.70;96.60;;;;;;5138033;27;20215;-76
2022/07/23 12:53:31;;;;;;;6.27;5.30;;;28.50;97.10;;;;;;5126637;27;20267;-77
2022/07/23 12:56:06;;;;;;;7.47;5.40;;;28.30;98.50;;;;;;5119617;28;20201;-75
2022/07/23 12:58:48;;;;;;;6.40;5.20;;;28.10;99.50;;;;;;5119324;28;20651;-77
2022/07/23 13:01:32;;;;;;;7.40;5.40;;;27.80;99.90;;;;;;5136839;27;20539;-77
2022/07/23 13:04:04;;;;;;;7.43;5.77;;;27.60;99.00;;;;;;5140407;27;20201;-76
2022/07/23 13:06:43;;;;;;;5.67;5.10;;;27.60;98.80;;;;;;5119357;28;20194;-76
2022/07/23 13:09:14;;;;;;;7.30;5.30;;;27.50;99.90;;;;;;5119424;28;20220;-75
2022/07/23 13:11:43;;;;;;;7.83;5.37;;;27.30;99.90;;;;;;5121311;27;20293;-75